createdAt,value
2022-11-23T00:01:38.904Z,74.99
2022-11-23T00:04:40.980Z,74.26
2022-11-23T00:07:43.087Z,75.15
2022-11-23T00:10:45.233Z,75.28
2022-11-23T00:13:47.611Z,74.97
2022-11-23T00:16:49.671Z,74.76
2022-11-23T00:19:51.738Z,75.35
2022-11-23T00:22:53.795Z,75.53
2022-11-23T00:25:55.865Z,75.66
2022-11-23T00:28:57.939Z,75.99
2022-11-23T00:32:02.269Z,78.24
2022-11-23T00:35:04.765Z,77.33
2022-11-23T00:38:07.113Z,79.17
2022-11-23T00:41:12.185Z,77.83
2022-11-23T00:44:14.301Z,78.71
2022-11-23T00:47:16.381Z,79.19
2022-11-23T00:50:18.600Z,79.29
2022-11-23T00:53:20.667Z,80.20
2022-11-23T00:56:22.795Z,79.56
2022-11-23T00:59:24.869Z,79.20
2022-11-23T01:02:29.088Z,79.86
2022-11-23T01:05:31.206Z,78.87
2022-11-23T01:08:34.946Z,80.51
2022-11-23T01:11:37.045Z,80.47
2022-11-23T01:14:39.170Z,79.72
2022-11-23T01:17:41.222Z,78.81
2022-11-23T01:20:43.949Z,79.54
2022-11-23T01:23:46.061Z,79.02
2022-11-23T01:26:52.662Z,78.98
2022-11-23T01:29:55.292Z,78.49
2022-11-23T01:32:57.329Z,78.56
2022-11-23T01:35:59.941Z,78.59
2022-11-23T01:39:02.459Z,79.28
2022-11-23T01:42:08.656Z,79.45
2022-11-23T01:45:57.174Z,79.12
2022-11-23T01:49:04.607Z,78.58
2022-11-23T01:52:20.092Z,78.46
2022-11-23T01:55:22.143Z,79.62
2022-11-23T01:58:24.233Z,79.43
2022-11-23T02:01:26.380Z,79.48
2022-11-23T02:04:34.338Z,79.19
2022-11-23T02:07:36.398Z,80.13
2022-11-23T02:10:38.487Z,79.74
2022-11-23T02:13:46.269Z,80.53
2022-11-23T02:16:48.336Z,79.58
2022-11-23T02:20:13.542Z,79.56
2022-11-23T02:23:34.744Z,80.68
2022-11-23T02:26:37.327Z,80.65
2022-11-23T02:29:39.702Z,80.75
2022-11-23T02:32:42.890Z,81.47
2022-11-23T02:35:53.898Z,81.87
2022-11-23T02:38:59.180Z,80.71
2022-11-23T02:42:01.434Z,80.87
2022-11-23T02:45:16.355Z,81.84
2022-11-23T02:48:19.186Z,82.50
2022-11-23T02:51:21.208Z,83.27
2022-11-23T02:54:23.251Z,84.21
2022-11-23T02:57:26.524Z,83.20
2022-11-23T03:00:28.612Z,84.32
2022-11-23T03:03:30.689Z,84.27
2022-11-23T03:06:32.779Z,83.14
2022-11-23T03:09:34.980Z,82.49
2022-11-23T03:12:37.925Z,81.69
2022-11-23T03:15:40.324Z,81.16
2022-11-23T03:18:43.012Z,81.84
2022-11-23T03:21:45.165Z,80.92
2022-11-23T03:24:47.214Z,82.08
2022-11-23T03:27:51.519Z,82.81
2022-11-23T03:30:54.509Z,81.33
2022-11-23T03:33:57.540Z,81.88
2022-11-23T03:37:01.017Z,82.17
2022-11-23T03:40:03.214Z,82.42
2022-11-23T03:43:23.824Z,82.27
2022-11-23T03:46:25.890Z,83.61
2022-11-23T03:49:27.918Z,84.23
2022-11-23T03:52:29.972Z,85.50
2022-11-23T03:55:33.224Z,84.28
2022-11-23T03:58:35.842Z,83.17
2022-11-23T04:01:41.956Z,83.25
2022-11-23T04:04:50.848Z,83.57
2022-11-23T04:08:24.857Z,83.59
2022-11-23T04:11:28.307Z,85.63
2022-11-23T04:14:30.692Z,86.44
2022-11-23T04:17:34.025Z,86.35
2022-11-23T04:20:36.124Z,86.17
2022-11-23T04:23:38.279Z,86.76
2022-11-23T04:26:43.472Z,87.37
2022-11-23T04:29:46.637Z,88.03
2022-11-23T04:32:48.963Z,87.10
2022-11-23T04:35:51.101Z,87.31
2022-11-23T04:38:53.406Z,87.90
2022-11-23T04:42:01.668Z,89.19
2022-11-23T04:45:05.773Z,87.80
2022-11-23T04:48:07.915Z,88.24
2022-11-23T04:51:11.409Z,88.42
2022-11-23T04:54:14.044Z,88.85
2022-11-23T04:57:23.523Z,88.85
2022-11-23T05:00:27.505Z,90.37
2022-11-23T05:03:31.614Z,89.71
2022-11-23T05:06:35.786Z,89.09
2022-11-23T05:09:38.847Z,88.16
2022-11-23T05:12:48.486Z,87.26
2022-11-23T05:15:50.652Z,88.33
2022-11-23T05:18:58.788Z,87.84
2022-11-23T05:22:00.939Z,88.79
2022-11-23T05:25:03.759Z,88.19
2022-11-23T05:28:30.520Z,88.96
2022-11-23T05:31:34.120Z,88.63
2022-11-23T05:34:36.246Z,88.80
2022-11-23T05:37:39.746Z,88.07
2022-11-23T05:40:46.544Z,88.09
2022-11-23T05:43:49.962Z,89.10
2022-11-23T05:46:57.161Z,88.61
2022-11-23T05:50:00.011Z,88.95
2022-11-23T05:53:05.604Z,88.83
2022-11-23T05:56:08.060Z,88.22
2022-11-23T05:59:18.158Z,88.74
2022-11-23T06:02:25.656Z,88.01
2022-11-23T06:05:33.788Z,88.69
2022-11-23T06:08:36.233Z,87.24
2022-11-23T06:11:39.400Z,88.34
2022-11-23T06:14:48.041Z,88.58
2022-11-23T06:17:52.938Z,89.58
2022-11-23T06:21:02.428Z,89.72
2022-11-23T06:24:05.316Z,89.87
2022-11-23T06:27:08.118Z,90.72
2022-11-23T06:30:10.918Z,90.56
2022-11-23T06:33:13.225Z,90.03
2022-11-23T06:36:20.460Z,89.72
2022-11-23T06:39:25.241Z,89.38
2022-11-23T06:42:42.846Z,88.93
2022-11-23T06:45:58.270Z,88.56
2022-11-23T06:49:03.757Z,89.12
2022-11-23T06:52:05.977Z,90.01
2022-11-23T06:55:08.635Z,89.11
2022-11-23T06:58:10.833Z,89.83
2022-11-23T07:01:13.016Z,90.50
2022-11-23T07:04:22.238Z,90.68
2022-11-23T07:07:27.530Z,90.82
2022-11-23T07:10:39.066Z,91.39
2022-11-23T07:13:41.131Z,90.02
2022-11-23T07:16:43.890Z,89.93
2022-11-23T07:19:46.052Z,90.15
2022-11-23T07:22:48.261Z,91.92
2022-11-23T07:25:50.414Z,91.91
2022-11-23T07:28:52.501Z,91.37
2022-11-23T07:31:55.794Z,92.76
2022-11-23T07:35:00.333Z,93.15
2022-11-23T07:38:04.477Z,93.45
2022-11-23T07:41:06.840Z,93.79
2022-11-23T07:44:21.551Z,91.97
2022-11-23T07:47:24.660Z,91.78
2022-11-23T07:50:26.883Z,92.41
2022-11-23T07:53:28.974Z,93.00
2022-11-23T07:56:31.021Z,92.52
2022-11-23T07:59:33.286Z,92.54
2022-11-23T08:02:35.541Z,92.66
2022-11-23T08:05:37.669Z,93.05
2022-11-23T08:08:39.751Z,92.47
2022-11-23T08:11:42.207Z,91.53
2022-11-23T08:14:44.241Z,92.91
2022-11-23T08:17:46.264Z,93.15
2022-11-23T08:20:48.473Z,91.94
2022-11-23T08:23:50.529Z,93.42
2022-11-23T08:26:52.660Z,93.38
2022-11-23T08:29:54.760Z,92.32
2022-11-23T08:32:56.908Z,91.84
2022-11-23T08:36:06.019Z,92.72
2022-11-23T08:39:08.814Z,93.65
2022-11-23T08:42:10.833Z,92.71
2022-11-23T08:45:12.957Z,92.24
2022-11-23T08:48:15.041Z,91.91
2022-11-23T08:51:22.495Z,92.64
2022-11-23T08:54:24.699Z,92.93
2022-11-23T08:57:27.306Z,92.19
2022-11-23T09:00:29.674Z,92.54
2022-11-23T09:03:31.739Z,92.23
2022-11-23T09:06:34.593Z,92.20
2022-11-23T09:09:36.740Z,92.07
2022-11-23T09:12:38.840Z,92.57
2022-11-23T09:15:40.934Z,93.20
2022-11-23T09:18:42.961Z,93.26
2022-11-23T09:21:45.026Z,93.38
2022-11-23T09:24:47.100Z,93.77
2022-11-23T09:27:49.961Z,93.79
2022-11-23T09:30:52.498Z,93.44
2022-11-23T09:33:54.609Z,93.94
2022-11-23T09:36:59.658Z,93.95
2022-11-23T09:40:01.772Z,92.86
2022-11-23T09:43:35.721Z,93.08
2022-11-23T09:47:24.513Z,93.40
2022-11-23T09:50:59.450Z,94.09
2022-11-23T09:54:29.281Z,93.42
2022-11-23T09:57:32.533Z,93.25
2022-11-23T10:00:50.354Z,93.57
2022-11-23T10:03:52.412Z,94.07
2022-11-23T10:06:58.102Z,93.35
2022-11-23T10:10:29.325Z,92.98
2022-11-23T10:13:35.492Z,93.01
2022-11-23T10:17:09.581Z,94.33
2022-11-23T10:20:39.021Z,93.64
2022-11-23T10:23:54.676Z,93.96
2022-11-23T10:26:56.752Z,93.88
2022-11-23T10:29:58.972Z,93.61
2022-11-23T10:33:31.733Z,94.37
2022-11-23T10:36:36.438Z,94.26
2022-11-23T10:39:38.575Z,93.77
2022-11-23T10:42:49.713Z,93.92
2022-11-23T10:45:54.787Z,94.14
2022-11-23T10:49:15.647Z,93.80
2022-11-23T10:52:29.609Z,93.57
2022-11-23T10:55:33.845Z,93.99
2022-11-23T10:58:44.387Z,93.16
2022-11-23T11:01:59.005Z,93.59
2022-11-23T11:06:07.019Z,91.80
2022-11-23T11:09:03.395Z,93.12
2022-11-23T11:12:06.068Z,93.36
2022-11-23T11:15:12.187Z,93.97
2022-11-23T11:18:18.561Z,94.22
2022-11-23T11:21:34.538Z,92.31
2022-11-23T11:24:44.177Z,93.11
2022-11-23T11:27:51.949Z,93.04
2022-11-23T11:31:09.325Z,93.94
2022-11-23T11:34:48.114Z,92.02
2022-11-23T11:37:51.336Z,92.52
2022-11-23T11:40:53.574Z,92.32
2022-11-23T11:44:21.997Z,92.13
2022-11-23T11:47:43.701Z,93.18
2022-11-23T11:50:52.913Z,93.21
2022-11-23T11:54:25.240Z,93.85
2022-11-23T11:57:47.825Z,92.34
2022-11-23T12:00:49.918Z,91.67
2022-11-23T12:03:56.885Z,93.30
2022-11-23T12:07:27.518Z,92.56
2022-11-23T12:10:37.757Z,92.36
2022-11-23T12:13:42.956Z,93.58
2022-11-23T12:17:32.575Z,93.05
2022-11-23T12:20:41.273Z,91.56
2022-11-23T12:24:23.608Z,91.32
2022-11-23T12:28:11.212Z,90.15
2022-11-23T12:31:24.744Z,88.76
2022-11-23T12:34:41.702Z,85.91
2022-11-23T12:37:53.883Z,85.23
2022-11-23T12:41:50.764Z,82.47
2022-11-23T12:45:20.734Z,81.30
2022-11-23T12:49:03.166Z,78.55
2022-11-23T12:52:35.471Z,75.94
2022-11-23T12:55:48.489Z,75.08
2022-11-23T12:58:50.719Z,73.43
2022-11-23T13:01:59.338Z,70.63
2022-11-23T13:05:29.139Z,66.68
2022-11-23T13:09:28.674Z,72.78
2022-11-23T13:13:04.542Z,71.09
2022-11-23T13:16:31.315Z,74.39
2022-11-23T13:19:58.928Z,68.58
2022-11-23T13:23:01.579Z,67.14
2022-11-23T13:26:21.218Z,62.76
2022-11-23T13:29:51.200Z,61.27
2022-11-23T13:33:23.667Z,61.85
2022-11-23T13:36:56.589Z,60.03
2022-11-23T13:39:58.406Z,59.72
2022-11-23T13:43:18.561Z,57.41
2022-11-23T13:46:28.912Z,55.33
2022-11-23T13:49:35.485Z,55.95
2022-11-23T13:52:37.645Z,53.28
2022-11-23T13:55:39.888Z,54.34
2022-11-23T13:58:42.023Z,56.28
2022-11-23T14:02:22.733Z,56.19
2022-11-23T14:05:47.794Z,54.41
2022-11-23T14:09:17.524Z,54.87
2022-11-23T14:12:43.401Z,55.80
2022-11-23T14:15:55.983Z,56.77
2022-11-23T14:19:45.448Z,55.70
2022-11-23T14:23:21.150Z,54.63
2022-11-23T14:26:34.561Z,55.32
2022-11-23T14:30:14.557Z,55.87
2022-11-23T14:33:43.785Z,55.22
2022-11-23T14:37:23.950Z,56.11
2022-11-23T14:41:07.105Z,62.15
2022-11-23T14:44:11.848Z,68.42
2022-11-23T14:47:14.075Z,70.47
2022-11-23T14:50:28.358Z,70.98
2022-11-23T14:53:43.981Z,71.52
2022-11-23T14:56:50.507Z,71.81
2022-11-23T15:00:01.815Z,73.78
2022-11-23T15:03:48.837Z,73.78
2022-11-23T15:06:45.822Z,76.11
2022-11-23T15:10:18.156Z,75.38
2022-11-23T15:13:42.815Z,76.70
2022-11-23T15:16:45.062Z,76.84
2022-11-23T15:20:00.637Z,77.04
2022-11-23T15:23:03.198Z,76.97
2022-11-23T15:26:24.051Z,76.89
2022-11-23T15:29:37.353Z,77.04
2022-11-23T15:32:39.844Z,77.86
2022-11-23T15:35:42.023Z,77.99
2022-11-23T15:38:44.228Z,78.71
2022-11-23T15:41:47.283Z,78.97
2022-11-23T15:44:51.065Z,78.40
2022-11-23T15:48:01.518Z,79.47
2022-11-23T15:51:05.754Z,79.17
2022-11-23T15:54:23.073Z,79.24
2022-11-23T15:57:26.347Z,77.71
2022-11-23T16:00:28.657Z,77.07
2022-11-23T16:04:28.856Z,76.54
2022-11-23T16:07:30.860Z,75.36
2022-11-23T16:10:34.976Z,75.89
2022-11-23T16:13:39.062Z,76.20
2022-11-23T16:16:45.822Z,75.86
2022-11-23T16:19:55.431Z,76.64
2022-11-23T16:22:57.880Z,76.27
2022-11-23T16:26:04.564Z,74.87
2022-11-23T16:29:06.664Z,75.49
2022-11-23T16:32:41.239Z,76.36
2022-11-23T16:35:43.460Z,75.50
2022-11-23T16:38:45.493Z,75.11
2022-11-23T16:41:47.647Z,75.63
2022-11-23T16:44:49.684Z,76.29
2022-11-23T16:47:56.747Z,76.78
2022-11-23T16:50:58.788Z,77.01
2022-11-23T16:54:21.731Z,77.91
2022-11-23T16:57:33.857Z,77.94
2022-11-23T17:00:36.117Z,78.49
2022-11-23T17:03:41.248Z,78.00
2022-11-23T17:06:44.132Z,79.37
2022-11-23T17:09:46.792Z,79.47
2022-11-23T17:12:54.231Z,79.22
2022-11-23T17:15:56.676Z,79.89
2022-11-23T17:18:59.141Z,79.49
2022-11-23T17:22:01.477Z,80.05
2022-11-23T17:25:07.860Z,79.77
2022-11-23T17:28:16.412Z,79.70
2022-11-23T17:31:18.703Z,79.03
2022-11-23T17:34:21.076Z,79.90
2022-11-23T17:37:26.075Z,79.43
2022-11-23T17:40:28.418Z,79.25
2022-11-23T17:43:30.575Z,80.34
2022-11-23T17:46:33.827Z,81.73
2022-11-23T17:49:36.356Z,80.99
2022-11-23T17:52:42.135Z,81.45
2022-11-23T17:55:44.237Z,81.09
2022-11-23T17:58:46.537Z,80.91
2022-11-23T18:01:49.129Z,81.31
2022-11-23T18:05:00.759Z,80.59
2022-11-23T18:08:03.586Z,81.51
2022-11-23T18:11:13.631Z,81.81
2022-11-23T18:14:18.219Z,81.73
2022-11-23T18:17:48.078Z,81.49
2022-11-23T18:20:51.406Z,80.98
2022-11-23T18:23:53.737Z,80.14
2022-11-23T18:26:55.857Z,81.35
2022-11-23T18:29:58.085Z,80.35
2022-11-23T18:33:00.129Z,81.42
2022-11-23T18:36:05.330Z,81.10
2022-11-23T18:39:07.860Z,81.91
2022-11-23T18:42:09.917Z,82.03
2022-11-23T18:45:11.950Z,83.45
2022-11-23T18:48:14.310Z,81.82
2022-11-23T18:51:16.967Z,82.68
2022-11-23T18:54:19.182Z,82.75
2022-11-23T18:57:21.232Z,82.15
2022-11-23T19:00:23.693Z,82.21
2022-11-23T19:03:25.752Z,82.86
2022-11-23T19:06:27.854Z,82.81
2022-11-23T19:09:29.919Z,82.13
2022-11-23T19:12:32.089Z,81.19
2022-11-23T19:15:34.251Z,81.71
2022-11-23T19:18:36.407Z,82.33
2022-11-23T19:21:39.213Z,80.98
2022-11-23T19:24:41.303Z,81.77
2022-11-23T19:27:44.169Z,82.33
2022-11-23T19:30:46.257Z,82.18
2022-11-23T19:33:49.360Z,82.11
2022-11-23T19:36:51.408Z,81.98
2022-11-23T19:39:53.448Z,84.05
2022-11-23T19:42:55.477Z,84.25
2022-11-23T19:45:58.242Z,85.05
2022-11-23T19:49:00.496Z,84.97
2022-11-23T19:52:03.536Z,86.60
2022-11-23T19:55:08.308Z,85.99
2022-11-23T19:58:12.015Z,86.59
2022-11-23T20:01:18.259Z,86.55
2022-11-23T20:04:20.459Z,86.89
2022-11-23T20:07:22.664Z,86.95
2022-11-23T20:10:25.071Z,87.48
2022-11-23T20:13:27.125Z,87.44
2022-11-23T20:16:30.884Z,88.02
2022-11-23T20:19:33.185Z,88.61
2022-11-23T20:22:35.861Z,87.88
2022-11-23T20:25:38.654Z,88.69
2022-11-23T20:28:43.886Z,88.05
2022-11-23T20:31:46.160Z,88.61
2022-11-23T20:34:48.264Z,88.48
2022-11-23T20:37:50.355Z,88.23
2022-11-23T20:40:52.429Z,87.70
2022-11-23T20:44:03.182Z,88.43
2022-11-23T20:47:05.347Z,89.34
2022-11-23T20:50:08.310Z,88.37
2022-11-23T20:53:10.351Z,86.78
2022-11-23T20:56:13.525Z,85.93
2022-11-23T20:59:15.829Z,87.92
2022-11-23T21:02:17.943Z,88.87
2022-11-23T21:05:20.286Z,88.54
2022-11-23T21:08:33.108Z,88.53
2022-11-23T21:11:55.378Z,87.15
2022-11-23T21:14:57.531Z,87.29
2022-11-23T21:17:59.706Z,86.57
2022-11-23T21:21:02.833Z,86.60
2022-11-23T21:24:05.942Z,87.56
2022-11-23T21:27:10.294Z,85.42
2022-11-23T21:30:12.808Z,83.18
2022-11-23T21:33:14.841Z,81.52
2022-11-23T21:36:17.034Z,81.56
2022-11-23T21:39:19.227Z,81.79
2022-11-23T21:42:21.344Z,82.37
2022-11-23T21:45:23.429Z,84.74
2022-11-23T21:48:25.494Z,85.62
2022-11-23T21:51:29.996Z,84.29
2022-11-23T21:54:32.320Z,85.76
2022-11-23T21:57:34.557Z,84.58
2022-11-23T22:00:36.662Z,83.22
2022-11-23T22:03:55.595Z,83.71
2022-11-23T22:06:57.679Z,82.91
2022-11-23T22:09:59.718Z,84.67
2022-11-23T22:13:01.849Z,83.44
2022-11-23T22:16:32.555Z,82.86
2022-11-23T22:19:34.830Z,83.20
2022-11-23T22:22:36.880Z,81.77
2022-11-23T22:25:41.873Z,82.56
2022-11-23T22:28:48.796Z,81.86
2022-11-23T22:31:50.934Z,82.22
2022-11-23T22:34:53.013Z,77.50
2022-11-23T22:37:55.665Z,78.95
2022-11-23T22:40:58.483Z,80.08
2022-11-23T22:44:00.568Z,79.15
2022-11-23T22:47:02.660Z,80.67
2022-11-23T22:50:05.333Z,80.04
2022-11-23T22:53:07.485Z,80.08
2022-11-23T22:56:14.742Z,79.08
2022-11-23T22:59:16.809Z,79.04
2022-11-23T23:02:19.039Z,78.72
2022-11-23T23:05:21.176Z,78.97
2022-11-23T23:08:24.278Z,79.08
2022-11-23T23:11:28.698Z,80.21
2022-11-23T23:14:30.909Z,79.84
2022-11-23T23:17:33.149Z,78.75
2022-11-23T23:20:35.878Z,79.34
2022-11-23T23:23:38.847Z,79.33
2022-11-23T23:26:40.978Z,79.12
2022-11-23T23:29:43.030Z,79.76
2022-11-23T23:32:45.315Z,81.03
2022-11-23T23:35:47.522Z,81.82
2022-11-23T23:38:49.893Z,83.27
2022-11-23T23:41:52.014Z,81.20
2022-11-23T23:44:54.144Z,82.13
2022-11-23T23:47:57.915Z,80.30
2022-11-23T23:51:10.159Z,79.40
2022-11-23T23:54:12.305Z,79.86
2022-11-23T23:57:14.389Z,80.99
